Time;durP1;ratioP1;P1;durP2;ratioP2;P2;SDS_P1;SDS_P2;PMS_P1;PMS_P2;Temp;Humidity;BMP_temperature;BMP_pressure;BME280_temperature;BME280_humidity;BME280_pressure;Samples;Min_cycle;Max_cycle;Signal;HPM_P1;HPM_P2
2022/11/25 00:01:12;;;;;;;11.82;2.88;;;7.60;99.90;;;;;;4918485;29;20047;-87
2022/11/25 00:03:38;;;;;;;17.67;3.40;;;7.60;99.90;;;;;;4917975;29;20036;-87
2022/11/25 00:06:11;;;;;;;16.63;2.97;;;7.60;99.90;;;;;;4918976;29;20044;-88
2022/11/25 00:08:37;;;;;;;15.17;3.23;;;7.60;99.90;;;;;;4917478;29;20096;-87
2022/11/25 00:11:04;;;;;;;13.07;2.92;;;7.60;99.90;;;;;;4916693;29;20072;-88
2022/11/25 00:13:30;;;;;;;15.00;2.78;;;7.60;99.90;;;;;;4917364;29;20168;-88
2022/11/25 00:16:04;;;;;;;17.00;3.33;;;7.60;99.90;;;;;;4917365;29;20044;-88
2022/11/25 00:18:30;;;;;;;14.65;3.30;;;7.60;99.90;;;;;;4917800;29;20047;-87
2022/11/25 00:20:56;;;;;;;15.60;3.17;;;7.60;99.90;;;;;;4917283;29;20032;-87
2022/11/25 00:23:21;;;;;;;12.07;3.20;;;7.60;99.90;;;;;;4918979;29;20048;-87
2022/11/25 00:25:47;;;;;;;17.15;3.17;;;7.60;99.90;;;;;;4916668;29;20036;-88
2022/11/25 00:28:12;;;;;;;14.00;2.90;;;7.60;99.90;;;;;;4917501;29;20492;-88
2022/11/25 00:30:38;;;;;;;16.58;2.92;;;7.60;99.90;;;;;;4918897;29;20040;-87
2022/11/25 00:33:03;;;;;;;14.35;2.97;;;7.60;99.90;;;;;;4916955;29;20040;-88
2022/11/25 00:35:29;;;;;;;13.73;3.42;;;7.60;99.90;;;;;;4918650;29;20499;-88
2022/11/25 00:37:55;;;;;;;12.48;2.85;;;7.60;99.90;;;;;;4916568;29;20054;-88
2022/11/25 00:40:20;;;;;;;12.43;2.85;;;7.60;99.90;;;;;;4916610;29;20100;-87
2022/11/25 00:45:30;;;;;;;14.30;3.20;;;7.60;99.90;;;;;;4916613;29;20062;-88
2022/11/25 00:47:56;;;;;;;19.70;3.20;;;7.60;99.90;;;;;;4916790;29;20135;-88
2022/11/25 00:50:21;;;;;;;11.38;2.67;;;7.60;99.90;;;;;;4917201;29;20048;-87
2022/11/25 00:52:47;;;;;;;12.32;2.90;;;7.70;99.90;;;;;;4916425;29;20468;-88
2022/11/25 00:55:13;;;;;;;15.57;3.45;;;7.60;99.90;;;;;;4915373;29;20056;-86
2022/11/25 00:57:39;;;;;;;15.40;3.47;;;7.60;99.90;;;;;;4918025;29;20055;-88
2022/11/25 01:00:05;;;;;;;15.30;3.78;;;7.70;99.90;;;;;;4917859;29;20115;-88
2022/11/25 01:02:31;;;;;;;18.17;3.95;;;7.70;99.90;;;;;;4916080;29;20048;-87
2022/11/25 01:04:56;;;;;;;14.95;3.33;;;7.70;99.90;;;;;;4916497;29;20048;-88
2022/11/25 01:07:22;;;;;;;18.90;3.90;;;7.60;99.90;;;;;;4916211;29;20119;-87
2022/11/25 01:09:48;;;;;;;19.15;4.13;;;7.70;99.90;;;;;;4916777;29;20055;-87
2022/11/25 01:12:29;;;;;;;20.58;3.90;;;7.70;99.90;;;;;;4923927;23;20044;-88
2022/11/25 01:14:57;;;;;;;14.57;3.22;;;7.70;99.90;;;;;;4915266;29;20056;-87
2022/11/25 01:17:22;;;;;;;14.15;3.42;;;7.70;99.90;;;;;;4914493;29;20040;-88
2022/11/25 01:19:48;;;;;;;16.27;3.85;;;7.70;99.90;;;;;;4916298;29;20083;-88
2022/11/25 01:22:14;;;;;;;16.73;3.55;;;7.70;99.90;;;;;;4914870;29;20048;-87
2022/11/25 01:24:39;;;;;;;13.23;3.08;;;7.70;99.90;;;;;;4917412;29;20047;-87
2022/11/25 01:27:05;;;;;;;21.27;3.85;;;7.80;99.90;;;;;;4917504;29;20119;-87
2022/11/25 01:29:52;;;;;;;20.40;3.90;;;7.70;99.90;;;;;;4916131;29;20138;-87
2022/11/25 01:32:24;;;;;;;14.40;3.33;;;7.70;99.90;;;;;;4915909;29;20052;-88
2022/11/25 01:34:53;;;;;;;17.95;3.30;;;7.70;99.90;;;;;;4915579;29;20492;-88
2022/11/25 01:39:46;;;;;;;15.45;3.80;;;7.70;99.90;;;;;;4884234;23;20593;-88
2022/11/25 01:42:12;;;;;;;14.25;3.60;;;7.70;99.90;;;;;;4881835;29;20052;-87
2022/11/25 01:45:10;;;;;;;17.35;4.25;;;7.70;99.90;;;;;;4880429;29;20104;-88
2022/11/25 01:47:50;;;;;;;16.17;4.05;;;7.80;99.90;;;;;;4877225;29;20057;-87
2022/11/25 01:50:27;;;;;;;21.15;4.05;;;7.70;99.90;;;;;;4877301;29;20097;-87
2022/11/25 01:52:55;;;;;;;17.95;4.38;;;7.70;99.90;;;;;;4878207;29;20053;-88
2022/11/25 01:55:44;;;;;;;20.00;4.32;;;7.80;99.90;;;;;;4878700;29;20053;-88
2022/11/25 01:58:19;;;;;;;18.77;4.22;;;7.80;99.90;;;;;;4890155;29;20052;-88
2022/11/25 02:00:50;;;;;;;12.40;3.15;;;7.80;99.90;;;;;;4878314;29;20386;-87
2022/11/25 02:03:41;;;;;;;17.50;3.85;;;7.80;99.90;;;;;;4892182;29;20048;-87
2022/11/25 02:06:41;;;;;;;14.88;3.03;;;7.80;99.90;;;;;;4882005;29;20061;-88
2022/11/25 02:09:33;;;;;;;12.88;3.00;;;7.80;99.90;;;;;;4878965;29;20057;-89
2022/11/25 02:12:00;;;;;;;13.82;3.50;;;7.80;99.90;;;;;;4878080;29;20067;-89
2022/11/25 02:14:26;;;;;;;16.63;3.53;;;7.80;99.90;;;;;;4878693;29;20045;-88
2022/11/25 02:17:09;;;;;;;20.98;3.90;;;7.80;99.90;;;;;;4879198;29;20052;-88
2022/11/25 02:20:09;;;;;;;15.52;3.30;;;7.90;99.90;;;;;;4879506;29;20061;-87
2022/11/25 02:22:49;;;;;;;18.23;3.78;;;7.80;99.90;;;;;;4878061;29;20044;-87
2022/11/25 02:25:51;;;;;;;18.90;3.60;;;7.80;99.90;;;;;;4878544;29;20565;-87
2022/11/25 02:28:18;;;;;;;16.90;3.92;;;7.80;99.90;;;;;;4877537;29;20064;-86
2022/11/25 02:30:47;;;;;;;16.15;4.00;;;7.80;99.90;;;;;;4879301;29;20596;-86
2022/11/25 02:33:14;;;;;;;20.17;4.80;;;7.90;99.90;;;;;;4878786;29;20045;-87
2022/11/25 02:36:09;;;;;;;14.63;3.67;;;7.90;99.90;;;;;;4878054;29;20081;-87
2022/11/25 02:38:56;;;;;;;13.50;3.35;;;7.90;99.90;;;;;;4882235;29;20087;-87
2022/11/25 02:41:30;;;;;;;12.27;2.88;;;7.90;99.90;;;;;;4896317;29;20400;-87
2022/11/25 02:43:56;;;;;;;15.70;4.22;;;7.90;99.90;;;;;;4879161;29;20073;-86
2022/11/25 02:46:24;;;;;;;12.35;3.13;;;7.90;99.90;;;;;;4878426;29;20061;-86
2022/11/25 02:48:52;;;;;;;18.10;3.63;;;7.90;99.90;;;;;;4878832;29;20088;-86
2022/11/25 02:51:20;;;;;;;12.45;3.13;;;7.90;99.90;;;;;;4878051;29;20450;-86
2022/11/25 02:53:46;;;;;;;11.15;3.10;;;7.90;99.90;;;;;;4876769;29;20048;-86
2022/11/25 02:56:13;;;;;;;17.67;3.92;;;7.90;99.90;;;;;;4877387;29;20059;-87
2022/11/25 02:58:42;;;;;;;13.15;4.15;;;7.90;99.90;;;;;;4878793;29;20105;-86
2022/11/25 03:01:08;;;;;;;15.35;4.15;;;7.90;99.90;;;;;;4878766;29;20043;-86
2022/11/25 03:03:34;;;;;;;11.98;3.40;;;7.90;99.90;;;;;;4879739;29;20041;-85
2022/11/25 03:06:00;;;;;;;14.88;4.07;;;7.90;99.90;;;;;;4878589;29;20105;-86
2022/11/25 03:08:26;;;;;;;13.93;3.60;;;7.90;99.90;;;;;;4884366;29;20633;-85
2022/11/25 03:10:52;;;;;;;14.00;3.90;;;7.90;99.90;;;;;;4878705;29;20056;-86
2022/11/25 03:13:17;;;;;;;19.58;4.90;;;7.90;99.90;;;;;;4878057;29;20397;-86
2022/11/25 03:15:43;;;;;;;18.92;4.22;;;8.00;99.90;;;;;;4878704;29;20076;-87
2022/11/25 03:18:09;;;;;;;14.55;3.80;;;8.00;99.90;;;;;;4878820;29;20405;-87
2022/11/25 03:20:35;;;;;;;16.98;4.95;;;7.90;99.90;;;;;;4876671;29;20104;-86
2022/11/25 03:23:01;;;;;;;19.50;4.78;;;8.00;99.90;;;;;;4878063;29;20140;-87
2022/11/25 03:25:27;;;;;;;16.52;4.60;;;8.00;99.90;;;;;;4878356;29;20519;-87
2022/11/25 03:27:52;;;;;;;16.25;4.53;;;8.00;99.90;;;;;;4880303;29;20045;-86
2022/11/25 03:30:21;;;;;;;14.43;3.83;;;8.00;99.90;;;;;;4878163;29;20104;-86
2022/11/25 03:32:47;;;;;;;24.67;5.90;;;8.00;99.90;;;;;;4877717;29;20139;-86
2022/11/25 03:35:13;;;;;;;17.58;4.20;;;8.00;99.90;;;;;;4877005;29;20193;-86
2022/11/25 03:37:39;;;;;;;13.57;4.10;;;8.00;99.90;;;;;;4878282;29;20405;-86
2022/11/25 03:40:06;;;;;;;16.13;4.55;;;8.00;99.90;;;;;;4878490;29;20124;-86
2022/11/25 03:42:32;;;;;;;14.52;4.35;;;8.00;99.90;;;;;;4876967;29;20082;-86
2022/11/25 03:44:57;;;;;;;16.27;4.40;;;8.00;99.90;;;;;;4878893;29;20081;-86
2022/11/25 03:47:23;;;;;;;22.13;5.68;;;8.00;99.90;;;;;;4880518;29;20157;-86
2022/11/25 03:49:49;;;;;;;20.33;5.47;;;8.00;99.90;;;;;;4882130;29;20577;-85
2022/11/25 03:52:15;;;;;;;13.27;4.13;;;8.00;99.90;;;;;;4880945;29;20041;-86
2022/11/25 03:54:41;;;;;;;19.98;5.07;;;8.00;99.90;;;;;;4883041;29;20466;-85
2022/11/25 03:57:06;;;;;;;16.58;4.55;;;8.00;99.90;;;;;;4910259;29;20053;-85
2022/11/25 03:59:32;;;;;;;15.05;4.55;;;8.00;99.90;;;;;;4880119;29;20056;-86
2022/11/25 04:01:58;;;;;;;16.10;4.75;;;8.10;99.90;;;;;;4893528;29;20465;-86
2022/11/25 04:04:24;;;;;;;16.15;5.10;;;8.10;99.90;;;;;;4900390;29;20492;-85
2022/11/25 04:06:49;;;;;;;19.50;4.75;;;8.10;99.90;;;;;;4890874;29;20136;-85
2022/11/25 04:09:15;;;;;;;15.50;4.47;;;8.10;99.90;;;;;;4881063;29;20052;-85
2022/11/25 04:14:25;;;;;;;17.55;4.88;;;8.10;99.90;;;;;;4880051;29;20045;-85
2022/11/25 04:16:51;;;;;;;21.23;6.35;;;8.10;99.90;;;;;;4880665;29;20049;-85
2022/11/25 04:19:16;;;;;;;18.67;5.22;;;8.10;99.90;;;;;;4880059;29;20048;-85
2022/11/25 04:21:42;;;;;;;22.55;5.88;;;8.10;99.90;;;;;;4880466;29;20053;-85
2022/11/25 04:24:08;;;;;;;18.38;4.95;;;8.10;99.90;;;;;;4880263;29;20045;-86
2022/11/25 04:26:33;;;;;;;22.15;5.63;;;8.10;99.90;;;;;;4880555;29;20132;-86
2022/11/25 04:28:59;;;;;;;22.52;5.35;;;8.20;99.90;;;;;;4880098;29;20128;-85
2022/11/25 04:31:24;;;;;;;20.48;5.60;;;8.20;99.90;;;;;;4890633;29;20107;-85
2022/11/25 04:33:50;;;;;;;17.20;5.22;;;8.20;99.90;;;;;;4886230;29;20059;-85
2022/11/25 04:36:16;;;;;;;16.92;5.50;;;8.20;99.90;;;;;;4881765;29;20041;-84
2022/11/25 04:38:42;;;;;;;19.55;6.78;;;8.20;99.90;;;;;;4878598;29;20089;-85
2022/11/25 04:41:07;;;;;;;20.50;4.82;;;8.20;99.90;;;;;;4894862;29;20049;-85
2022/11/25 04:43:33;;;;;;;17.48;5.35;;;8.20;99.90;;;;;;4879309;29;20156;-85
2022/11/25 04:45:59;;;;;;;22.42;5.95;;;8.20;99.90;;;;;;4878977;29;20405;-86
2022/11/25 04:48:25;;;;;;;18.50;5.22;;;8.20;99.90;;;;;;4880882;29;20048;-85
2022/11/25 04:50:50;;;;;;;13.55;4.90;;;8.20;99.90;;;;;;4881968;29;20053;-85
2022/11/25 04:53:16;;;;;;;16.50;4.70;;;8.20;99.90;;;;;;4878864;29;20059;-84
2022/11/25 04:55:41;;;;;;;12.75;4.40;;;8.20;99.90;;;;;;4879146;29;20135;-84
2022/11/25 04:58:09;;;;;;;23.95;5.93;;;8.20;99.90;;;;;;4878887;29;20097;-84
2022/11/25 05:00:35;;;;;;;16.73;4.57;;;8.20;99.90;;;;;;4879785;29;20077;-85
2022/11/25 05:03:00;;;;;;;18.30;5.43;;;8.20;99.90;;;;;;4884463;29;20504;-85
2022/11/25 05:05:26;;;;;;;22.73;5.80;;;8.20;99.90;;;;;;4879012;29;20605;-85
2022/11/25 05:07:52;;;;;;;17.67;4.95;;;8.20;99.90;;;;;;4879824;29;20045;-85
2022/11/25 05:10:17;;;;;;;15.70;4.65;;;8.20;99.90;;;;;;4880301;29;20549;-85
2022/11/25 05:12:43;;;;;;;18.80;4.95;;;8.20;99.90;;;;;;4881222;29;20406;-85
2022/11/25 05:15:09;;;;;;;11.90;4.18;;;8.20;99.90;;;;;;4885142;29;20041;-85
2022/11/25 05:17:35;;;;;;;14.02;4.72;;;8.20;99.90;;;;;;4880085;29;20048;-85
2022/11/25 05:20:00;;;;;;;17.88;5.85;;;8.20;99.90;;;;;;4878662;29;20049;-85
2022/11/25 05:22:29;;;;;;;17.33;5.53;;;8.20;99.90;;;;;;4880139;29;20056;-85
2022/11/25 05:24:56;;;;;;;18.40;5.30;;;8.20;99.90;;;;;;4880581;29;20049;-85
2022/11/25 05:27:22;;;;;;;29.52;7.57;;;8.20;99.90;;;;;;4879514;29;20049;-84
2022/11/25 05:29:48;;;;;;;21.08;6.50;;;8.20;99.90;;;;;;4883366;29;20502;-85
2022/11/25 05:32:14;;;;;;;22.48;6.50;;;8.20;99.90;;;;;;4883293;29;20056;-85
2022/11/25 05:34:40;;;;;;;19.65;5.65;;;8.20;99.90;;;;;;4878615;29;20065;-85
2022/11/25 05:37:07;;;;;;;21.67;6.38;;;8.30;99.90;;;;;;4880158;29;20052;-85
2022/11/25 05:39:33;;;;;;;23.70;6.95;;;8.30;99.90;;;;;;4879638;29;20493;-85
2022/11/25 05:41:59;;;;;;;16.73;5.20;;;8.30;99.90;;;;;;4878266;29;20056;-85
2022/11/25 05:44:24;;;;;;;13.77;4.25;;;8.30;99.90;;;;;;4878504;29;20045;-85
2022/11/25 05:46:50;;;;;;;15.70;4.53;;;8.30;99.90;;;;;;4880125;29;20393;-85
2022/11/25 05:49:17;;;;;;;14.45;5.43;;;8.30;99.90;;;;;;4887292;29;20041;-85
2022/11/25 05:51:43;;;;;;;19.90;6.25;;;8.30;99.90;;;;;;4878767;29;20049;-85
2022/11/25 05:54:09;;;;;;;18.92;5.55;;;8.30;99.90;;;;;;4879482;29;20045;-85
2022/11/25 05:56:35;;;;;;;13.50;5.32;;;8.30;99.90;;;;;;4877551;29;20045;-85
2022/11/25 05:59:02;;;;;;;21.92;6.85;;;8.30;99.90;;;;;;4884789;29;20079;-85
2022/11/25 06:01:27;;;;;;;17.55;5.50;;;8.30;99.90;;;;;;4877512;29;20049;-85
2022/11/25 06:03:58;;;;;;;13.70;4.90;;;8.30;99.90;;;;;;4877900;29;20072;-85
2022/11/25 06:06:24;;;;;;;22.65;6.22;;;8.40;99.90;;;;;;4878733;29;20044;-85
2022/11/25 06:08:50;;;;;;;13.85;4.53;;;8.30;99.90;;;;;;4877754;29;20071;-85
2022/11/25 06:11:16;;;;;;;14.30;4.60;;;8.40;99.90;;;;;;4877607;29;20056;-85
2022/11/25 06:13:43;;;;;;;12.77;4.85;;;8.40;99.90;;;;;;4882339;29;20554;-85
2022/11/25 06:16:19;;;;;;;24.60;6.30;;;8.40;99.90;;;;;;4884130;29;20101;-85
2022/11/25 06:18:45;;;;;;;19.98;5.60;;;8.40;99.90;;;;;;4879603;29;20137;-85
2022/11/25 06:21:11;;;;;;;17.58;5.15;;;8.40;99.90;;;;;;4879116;29;20053;-85
2022/11/25 06:23:37;;;;;;;17.95;5.20;;;8.40;99.90;;;;;;4877562;29;20390;-85
2022/11/25 06:26:18;;;;;;;17.17;5.35;;;8.40;99.90;;;;;;4877958;29;20378;-85
2022/11/25 06:28:44;;;;;;;16.92;5.30;;;8.40;99.90;;;;;;4879272;29;20056;-85
2022/11/25 06:31:14;;;;;;;19.70;5.60;;;8.50;99.90;;;;;;4877196;29;20037;-85
2022/11/25 06:33:39;;;;;;;17.45;4.72;;;8.40;99.90;;;;;;4879170;29;20041;-85
2022/11/25 06:36:08;;;;;;;17.92;5.00;;;8.50;99.90;;;;;;4878915;29;20128;-85
2022/11/25 06:38:34;;;;;;;21.58;4.78;;;8.50;99.90;;;;;;4876904;29;20413;-85
2022/11/25 06:41:01;;;;;;;17.88;4.90;;;8.50;99.90;;;;;;4877749;29;20119;-84
2022/11/25 06:43:28;;;;;;;17.38;4.30;;;8.50;99.90;;;;;;4876476;29;20041;-85
2022/11/25 06:45:53;;;;;;;18.08;4.43;;;8.50;99.90;;;;;;4877056;29;20045;-85
2022/11/25 06:48:19;;;;;;;18.55;4.15;;;8.50;99.90;;;;;;4877650;29;20044;-85
2022/11/25 06:50:55;;;;;;;13.70;3.60;;;8.50;99.90;;;;;;4877410;29;20084;-84
2022/11/25 06:53:21;;;;;;;15.65;3.55;;;8.50;99.90;;;;;;4878889;29;20449;-85
2022/11/25 06:55:46;;;;;;;14.20;3.58;;;8.50;99.90;;;;;;4908726;29;20132;-85
2022/11/25 06:58:12;;;;;;;16.77;3.90;;;8.50;99.90;;;;;;4878022;29;20049;-86
2022/11/25 07:00:37;;;;;;;14.85;3.72;;;8.50;99.90;;;;;;4878404;29;20070;-86
2022/11/25 07:03:03;;;;;;;12.55;3.58;;;8.50;99.90;;;;;;4878718;29;20101;-86
2022/11/25 07:05:28;;;;;;;16.60;3.60;;;8.60;99.90;;;;;;4908042;29;20049;-85
2022/11/25 07:07:54;;;;;;;15.48;4.22;;;8.50;99.90;;;;;;4877083;29;20409;-85
2022/11/25 07:10:20;;;;;;;12.63;2.97;;;8.60;99.90;;;;;;4877758;29;20069;-86
2022/11/25 07:12:45;;;;;;;13.85;2.75;;;8.60;99.90;;;;;;4905472;29;20041;-85
2022/11/25 07:15:11;;;;;;;18.85;3.53;;;8.60;99.90;;;;;;4877649;29;20136;-85
2022/11/25 07:17:36;;;;;;;12.93;3.05;;;8.50;99.90;;;;;;4878482;29;20044;-84
2022/11/25 07:20:02;;;;;;;13.52;3.17;;;8.60;99.90;;;;;;4880723;29;20131;-85
2022/11/25 07:22:28;;;;;;;13.85;3.03;;;8.60;99.90;;;;;;4912387;29;20048;-86
2022/11/25 07:24:53;;;;;;;14.15;3.00;;;8.60;99.90;;;;;;4882057;29;20053;-87
2022/11/25 07:27:19;;;;;;;17.65;3.13;;;8.60;99.90;;;;;;4879952;29;20092;-88
2022/11/25 07:29:45;;;;;;;16.95;3.33;;;8.60;99.90;;;;;;4881249;29;20144;-89
2022/11/25 07:32:10;;;;;;;13.05;3.00;;;8.50;99.90;;;;;;4880589;29;20052;-88
2022/11/25 07:34:36;;;;;;;11.50;2.67;;;8.50;99.90;;;;;;4880340;29;20049;-89
2022/11/25 07:37:01;;;;;;;12.63;2.80;;;8.50;99.90;;;;;;4880945;29;20050;-88
2022/11/25 07:39:27;;;;;;;13.77;2.88;;;8.50;99.90;;;;;;4879586;29;20068;-84
2022/11/25 07:41:53;;;;;;;13.13;2.88;;;8.50;99.90;;;;;;4879627;29;20049;-86
2022/11/25 07:44:19;;;;;;;13.55;2.85;;;8.50;99.90;;;;;;4880380;29;20481;-88
2022/11/25 07:46:47;;;;;;;11.68;2.97;;;8.40;99.90;;;;;;4895256;29;20073;-85
2022/11/25 07:49:19;;;;;;;14.50;3.17;;;8.40;99.90;;;;;;4881849;29;20505;-87
2022/11/25 07:51:54;;;;;;;15.27;2.83;;;8.40;99.90;;;;;;4881459;29;20045;-93
2022/11/25 07:54:21;;;;;;;13.50;2.80;;;8.40;99.90;;;;;;4925664;23;20048;-90
2022/11/25 07:56:48;;;;;;;11.70;2.70;;;8.40;99.90;;;;;;4921887;29;20048;-90
2022/11/25 07:59:20;;;;;;;12.18;2.83;;;8.40;99.90;;;;;;4918663;29;20052;-92
2022/11/25 08:01:52;;;;;;;10.55;2.60;;;8.40;99.90;;;;;;4918350;29;20044;-85
2022/11/25 08:04:18;;;;;;;18.70;2.88;;;8.40;99.90;;;;;;4917789;29;20099;-84
2022/11/25 08:06:53;;;;;;;12.30;2.97;;;8.30;99.90;;;;;;4918466;29;20560;-92
2022/11/25 08:09:23;;;;;;;12.43;2.38;;;8.30;99.90;;;;;;4917035;29;20147;-93
2022/11/25 08:11:49;;;;;;;12.43;2.80;;;8.40;99.90;;;;;;4919193;29;20036;-92
2022/11/25 08:14:15;;;;;;;12.65;2.95;;;8.30;99.90;;;;;;4919880;29;20044;-92
2022/11/25 08:16:44;;;;;;;13.20;2.90;;;8.30;99.90;;;;;;4918698;29;20063;-93
2022/11/25 08:19:13;;;;;;;12.57;3.03;;;8.30;99.90;;;;;;4918904;29;20040;-93
2022/11/25 08:21:42;;;;;;;13.50;3.03;;;8.30;99.90;;;;;;4920025;29;20056;-93
2022/11/25 08:24:28;;;;;;;11.20;2.58;;;8.30;99.90;;;;;;4917775;29;20488;-92
2022/11/25 08:27:01;;;;;;;14.90;3.70;;;8.20;99.90;;;;;;4917117;29;20500;-90
2022/11/25 08:29:49;;;;;;;13.70;3.03;;;8.30;99.90;;;;;;4899412;29;20059;-87
2022/11/25 08:32:21;;;;;;;13.40;3.03;;;8.20;99.90;;;;;;4918146;29;20436;-89
2022/11/25 08:34:47;;;;;;;11.65;3.20;;;8.20;99.90;;;;;;4909715;29;20454;-85
2022/11/25 08:37:18;;;;;;;13.88;3.63;;;8.30;99.90;;;;;;4904805;29;20036;-86
2022/11/25 08:39:56;;;;;;;14.27;3.40;;;8.30;99.90;;;;;;4918482;29;20047;-85
2022/11/25 08:42:22;;;;;;;10.82;3.05;;;8.30;99.90;;;;;;4916336;29;20504;-86
2022/11/25 08:44:52;;;;;;;14.43;3.33;;;8.20;99.90;;;;;;4916380;29;20515;-86
2022/11/25 08:47:18;;;;;;;10.40;3.22;;;8.30;99.90;;;;;;4918663;29;20044;-86
2022/11/25 08:49:44;;;;;;;13.75;3.40;;;8.30;99.90;;;;;;4917305;29;20130;-91
2022/11/25 08:52:09;;;;;;;12.57;3.55;;;8.30;99.90;;;;;;4917361;29;20135;-91
2022/11/25 08:54:35;;;;;;;13.45;3.55;;;8.30;99.90;;;;;;4917509;29;20580;-91
2022/11/25 08:57:01;;;;;;;16.67;4.00;;;8.30;99.90;;;;;;4917203;29;20063;-91
2022/11/25 08:59:26;;;;;;;14.70;3.65;;;8.30;99.90;;;;;;4917190;29;20052;-91
2022/11/25 09:01:52;;;;;;;11.68;2.80;;;8.30;99.90;;;;;;4917203;29;20080;-92
2022/11/25 09:04:18;;;;;;;11.57;3.47;;;8.30;99.90;;;;;;4917031;29;20052;-91
2022/11/25 09:06:43;;;;;;;13.57;4.18;;;8.30;99.90;;;;;;4917463;29;20122;-92
2022/11/25 09:09:09;;;;;;;12.10;3.22;;;8.40;99.90;;;;;;4916744;29;20095;-91
2022/11/25 09:11:34;;;;;;;12.02;3.85;;;8.40;99.90;;;;;;4916828;29;20579;-91
2022/11/25 09:14:00;;;;;;;13.65;3.90;;;8.40;99.90;;;;;;4918440;29;20104;-91
2022/11/25 09:16:26;;;;;;;13.98;3.88;;;8.40;99.90;;;;;;4916054;29;20618;-88
2022/11/25 09:18:51;;;;;;;12.77;3.88;;;8.40;99.90;;;;;;4916154;29;20044;-91
2022/11/25 09:21:17;;;;;;;10.40;3.78;;;8.40;99.90;;;;;;4915472;29;20052;-90
2022/11/25 09:23:43;;;;;;;14.55;4.55;;;8.50;99.90;;;;;;4916555;29;20083;-90
2022/11/25 09:26:22;;;;;;;12.30;4.15;;;8.50;99.90;;;;;;4914798;29;20048;-90
2022/11/25 09:28:50;;;;;;;9.93;3.38;;;8.50;99.90;;;;;;4916345;29;20134;-91
2022/11/25 09:31:17;;;;;;;11.07;4.13;;;8.50;99.90;;;;;;4916312;29;20051;-92
2022/11/25 09:33:43;;;;;;;15.63;4.60;;;8.60;99.90;;;;;;4916381;29;20032;-91
2022/11/25 09:36:12;;;;;;;11.77;4.15;;;8.60;99.90;;;;;;4917696;29;20152;-90
2022/11/25 09:38:44;;;;;;;13.45;4.30;;;8.70;99.90;;;;;;4916840;29;20071;-93
2022/11/25 09:49:23;;;;;;;16.60;7.45;;;8.80;99.90;;;;;;4915770;29;20056;-89
2022/11/25 09:52:19;;;;;;;13.23;5.28;;;8.80;99.90;;;;;;4916404;29;20075;-89
2022/11/25 09:55:18;;;;;;;11.95;4.70;;;8.80;99.90;;;;;;4900573;29;20056;-89
2022/11/25 09:58:19;;;;;;;13.98;4.70;;;8.90;99.90;;;;;;4891784;29;20111;-88
2022/11/25 10:00:49;;;;;;;11.88;4.22;;;8.90;99.90;;;;;;4915117;29;20094;-89
2022/11/25 10:07:06;;;;;;;15.07;4.35;;;9.00;99.90;;;;;;4916330;29;20150;-89
2022/11/25 10:09:35;;;;;;;16.27;4.88;;;9.00;99.90;;;;;;4915659;29;20104;-89
2022/11/25 10:12:32;;;;;;;14.45;4.13;;;9.10;99.90;;;;;;4915679;29;20508;-89
2022/11/25 10:15:24;;;;;;;13.35;5.10;;;9.10;99.90;;;;;;4842932;29;20522;-89
2022/11/25 10:18:44;;;;;;;12.73;4.03;;;9.20;99.90;;;;;;4858905;29;20486;-89
2022/11/25 10:21:13;;;;;;;12.43;4.78;;;9.20;99.90;;;;;;4915942;29;20050;-90
2022/11/25 10:24:05;;;;;;;12.93;4.45;;;9.30;99.90;;;;;;4916192;29;20051;-89
2022/11/25 10:32:53;;;;;;;10.63;3.55;;;9.40;99.90;;;;;;4859010;29;20470;-89
2022/11/25 10:35:57;;;;;;;12.45;4.25;;;9.40;99.90;;;;;;4859290;29;20059;-89
2022/11/25 10:39:16;;;;;;;13.45;3.97;;;9.40;99.90;;;;;;4859443;29;20049;-89
2022/11/25 10:42:40;;;;;;;11.60;3.50;;;9.50;99.90;;;;;;4861940;29;20045;-87
2022/11/25 10:46:22;;;;;;;15.75;3.28;;;9.50;99.90;;;;;;4852270;29;20144;-89
2022/11/25 10:49:42;;;;;;;12.48;3.15;;;9.60;99.90;;;;;;4735683;30;20090;-88
2022/11/25 10:56:22;;;;;;;12.05;3.25;;;9.70;99.90;;;;;;4921035;29;20047;-89
2022/11/25 10:59:52;;;;;;;11.38;3.00;;;9.80;99.90;;;;;;4918420;29;20055;-89
2022/11/25 11:02:50;;;;;;;;;;;;;;;;;;;;;
2022/11/25 11:05:53;;;;;;;14.27;2.83;;;9.90;99.90;;;;;;4828021;29;20212;-89
2022/11/25 11:08:51;;;;;;;15.20;3.17;;;9.90;99.90;;;;;;4865059;29;20045;-88
2022/11/25 11:14:07;;;;;;;14.55;3.10;;;9.90;99.90;;;;;;4970192;23;20047;-89
2022/11/25 11:16:50;;;;;;;;;;;;;;;;;;;;;
2022/11/25 11:26:41;;;;;;;15.57;2.88;;;10.10;99.90;;;;;;4841837;29;20057;-89
2022/11/25 11:29:45;;;;;;;16.25;3.28;;;10.20;99.90;;;;;;4827988;29;20126;-89
2022/11/25 11:32:48;;;;;;;12.82;2.58;;;10.20;99.90;;;;;;4829188;29;20163;-89
2022/11/25 11:43:28;;;;;;;13.60;2.55;;;10.30;99.90;;;;;;4824675;29;20059;-88
2022/11/25 11:46:45;;;;;;;;;;;;;;;;;;;;;
2022/11/25 11:52:32;;;;;;;13.25;2.92;;;10.50;99.90;;;;;;4923523;23;20048;-89
2022/11/25 11:55:29;;;;;;;11.85;3.05;;;10.50;99.90;;;;;;4899193;29;20199;-89
2022/11/25 12:06:09;;;;;;;13.73;2.95;;;10.60;99.90;;;;;;4878676;29;20588;-89
2022/11/25 12:09:41;;;;;;;;;;;;;;;;;;;;;
2022/11/25 12:16:58;;;;;;;;;;;;;;;;;;;;;
2022/11/25 12:20:40;;;;;;;13.02;2.88;;;10.60;99.90;;;;;;4783376;29;20069;-87
2022/11/25 12:23:41;;;;;;;12.77;2.75;;;10.70;99.90;;;;;;4848064;29;20076;-88
2022/11/25 12:26:38;;;;;;;15.20;2.80;;;10.70;99.90;;;;;;4864612;29;20053;-88
2022/11/25 12:29:24;;;;;;;;;;;;;;;;;;;;;
2022/11/25 12:32:31;;;;;;;14.85;2.80;;;10.80;99.90;;;;;;4879299;29;20057;-89
2022/11/25 12:35:33;;;;;;;14.48;2.97;;;10.70;99.90;;;;;;4832197;29;20139;-89
2022/11/25 12:38:55;;;;;;;12.57;3.00;;;10.80;99.90;;;;;;4897088;23;20429;-88
2022/11/25 12:41:49;;;;;;;12.15;2.85;;;10.80;99.90;;;;;;4854971;29;20049;-88
2022/11/25 12:44:50;;;;;;;15.55;2.58;;;10.80;99.90;;;;;;4890115;29;20139;-88
2022/11/25 12:47:15;;;;;;;14.95;2.58;;;10.80;99.90;;;;;;4879810;29;20068;-88
2022/11/25 12:49:49;;;;;;;11.18;2.50;;;10.80;99.90;;;;;;4889232;29;20060;-86
2022/11/25 12:52:37;;;;;;;12.68;2.50;;;10.80;99.90;;;;;;4897678;29;20052;-87
2022/11/25 12:55:22;;;;;;;15.40;3.05;;;10.80;99.90;;;;;;4899623;29;20084;-86
2022/11/25 12:58:08;;;;;;;15.15;2.80;;;10.90;99.90;;;;;;4896535;29;20090;-85
2022/11/25 14:07:39;;;;;;;16.58;2.88;;;11.40;99.90;;;;;;5491829;23;20035;31
2022/11/25 14:42:21;;;;;;;16.77;4.35;;;11.20;99.90;;;;;;4886753;29;20061;-88
2022/11/25 14:45:45;;;;;;;19.25;3.75;;;11.20;99.90;;;;;;4878640;29;20063;-88
2022/11/25 14:48:32;;;;;;;21.95;5.72;;;11.10;99.90;;;;;;4878365;29;20061;-89
2022/11/25 14:51:42;;;;;;;20.35;4.88;;;11.10;99.90;;;;;;4877444;29;20561;-87
2022/11/25 14:55:35;;;;;;;21.25;4.15;;;11.10;99.90;;;;;;4878816;29;20132;-88
2022/11/25 14:57:40;;;;;;;18.83;2.85;;;11.10;99.90;;;;;;4804598;29;20061;-85
2022/11/25 15:00:10;;;;;;;16.23;3.20;;;11.10;99.90;;;;;;4805894;29;20557;-86
2022/11/25 15:06:13;;;;;;;15.95;3.50;;;11.10;99.90;;;;;;4828818;29;20516;-85
2022/11/25 15:09:33;;;;;;;;;;;;;;;;;;;;;
2022/11/25 15:15:45;;;;;;;15.30;3.53;;;11.00;99.90;;;;;;4762833;29;20049;-87
2022/11/25 15:18:19;;;;;;;14.73;3.53;;;11.00;99.90;;;;;;4823360;29;20530;-87
2022/11/25 15:20:48;;;;;;;9.43;2.65;;;11.00;99.90;;;;;;4824941;29;20053;-86
2022/11/25 15:23:53;;;;;;;17.15;3.33;;;10.90;99.90;;;;;;4824892;29;20506;-87
2022/11/25 15:26:22;;;;;;;12.48;2.90;;;10.90;99.90;;;;;;4839196;29;20050;-87
2022/11/25 15:29:14;;;;;;;10.98;2.50;;;10.90;99.90;;;;;;4825070;29;20507;-87
2022/11/25 15:31:45;;;;;;;13.32;2.63;;;10.90;99.90;;;;;;4824203;29;20525;-87
2022/11/25 15:34:13;;;;;;;13.25;3.17;;;10.80;99.90;;;;;;4839740;29;20057;-87
2022/11/25 15:36:41;;;;;;;14.52;2.55;;;10.90;99.90;;;;;;4824586;29;20058;-87
2022/11/25 15:39:19;;;;;;;7.82;2.10;;;10.90;99.90;;;;;;4838957;29;20070;-87
2022/11/25 15:41:49;;;;;;;9.18;1.92;;;10.80;99.90;;;;;;4836922;29;20058;-87
2022/11/25 15:44:35;;;;;;;10.30;2.58;;;10.90;99.90;;;;;;4905240;23;20060;-87
2022/11/25 15:47:23;;;;;;;9.73;2.60;;;10.80;99.90;;;;;;4934067;29;20056;-87
2022/11/25 15:49:54;;;;;;;7.10;2.15;;;10.80;99.90;;;;;;4919958;29;20040;-87
2022/11/25 15:52:22;;;;;;;8.85;2.20;;;10.80;99.90;;;;;;4917594;29;20115;-86
2022/11/25 15:54:50;;;;;;;7.60;1.92;;;10.80;99.90;;;;;;4919682;29;20403;-87
2022/11/25 15:57:44;;;;;;;10.05;2.20;;;10.80;99.90;;;;;;4918501;29;20362;-87
2022/11/25 16:00:18;;;;;;;11.27;2.55;;;10.70;99.90;;;;;;4917644;29;20044;-87
2022/11/25 16:02:44;;;;;;;10.45;2.20;;;10.70;99.90;;;;;;4918635;29;20493;-88
2022/11/25 16:05:23;;;;;;;9.73;2.20;;;10.70;99.90;;;;;;4919260;29;20051;-87
2022/11/25 16:08:50;;;;;;;8.00;1.92;;;10.70;99.90;;;;;;4918094;29;20055;-87
2022/11/25 16:11:18;;;;;;;8.32;2.03;;;10.60;99.90;;;;;;4898617;29;20064;-87
2022/11/25 16:13:48;;;;;;;7.70;2.20;;;10.70;99.90;;;;;;4897605;29;20240;-87
2022/11/25 16:16:28;;;;;;;6.00;2.00;;;10.60;99.90;;;;;;4898233;29;20151;-87
2022/11/25 16:22:28;;;;;;;7.55;1.90;;;10.50;99.90;;;;;;4881729;29;20056;-87